Time;durP1;ratioP1;P1;durP2;ratioP2;P2;SDS_P1;SDS_P2;PMS_P1;PMS_P2;Temp;Humidity;BMP_temperature;BMP_pressure;BME280_temperature;BME280_humidity;BME280_pressure;Samples;Min_cycle;Max_cycle;Signal;HPM_P1;HPM_P2
2023/06/24 00:01:07;;;;;;;;;;;;;;;23.36;65.57;100710.03;7397511;19;1745;-52
2023/06/24 00:03:37;;;;;;;;;;;;;;;23.37;65.26;100698.22;7397080;19;1756;-52
2023/06/24 00:06:05;;;;;;;;;;;;;;;23.55;64.72;100693.50;7397849;19;1393;-52
2023/06/24 00:08:37;;;;;;;;;;;;;;;23.61;64.74;100700.09;7397160;19;1748;-52
2023/06/24 00:11:05;;;;;;;;;;;;;;;23.73;63.93;100703.31;7398667;19;1046;-52
2023/06/24 00:13:33;;;;;;;;;;;;;;;23.55;65.23;100688.09;7396284;19;1844;-52
2023/06/24 00:16:02;;;;;;;;;;;;;;;23.54;64.88;100699.09;7395948;19;1487;-52
2023/06/24 00:18:30;;;;;;;;;;;;;;;23.55;64.21;100679.16;7395953;19;1745;-53
2023/06/24 00:20:58;;;;;;;;;;;;;;;23.52;65.19;100674.97;7395716;19;1791;-52
2023/06/24 00:23:27;;;;;;;;;;;;;;;23.59;64.61;100659.75;7395339;19;1369;-52
2023/06/24 00:25:58;;;;;;;;;;;;;;;23.59;63.94;100657.06;7397041;19;1482;-52
2023/06/24 00:28:26;;;;;;;;;;;;;;;23.58;64.82;100668.88;7395697;19;1450;-52
2023/06/24 00:30:55;;;;;;;;;;;;;;;23.63;64.77;100665.66;7396983;19;1654;-52
2023/06/24 00:33:23;;;;;;;;;;;;;;;23.56;63.90;100664.66;7397423;19;1771;-52
2023/06/24 00:35:51;;;;;;;;;;;;;;;23.39;63.90;100666.50;7394785;19;1845;-52
2023/06/24 00:38:20;;;;;;;;;;;;;;;23.49;64.03;100661.78;7397150;19;944;-53
2023/06/24 00:40:48;;;;;;;;;;;;;;;23.60;63.93;100663.31;7396710;19;1935;-52
2023/06/24 00:43:19;;;;;;;;;;;;;;;23.43;63.81;100665.97;7399280;19;1503;-52
2023/06/24 00:45:48;;;;;;;;;;;;;;;23.51;65.00;100656.22;7403379;19;1806;-53
2023/06/24 00:48:17;;;;;;;;;;;;;;;23.48;64.68;100668.22;7403339;19;1792;-52
2023/06/24 00:50:45;;;;;;;;;;;;;;;23.41;64.71;100664.47;7403578;19;1401;-52
2023/06/24 00:53:14;;;;;;;;;;;;;;;23.48;64.04;100657.41;7404318;19;1697;-52
2023/06/24 00:55:42;;;;;;;;;;;;;;;23.39;64.44;100653.00;7400711;19;1851;-52
2023/06/24 00:58:15;;;;;;;;;;;;;;;23.45;64.73;100651.50;7403117;19;1486;-52
2023/06/24 01:00:48;;;;;;;;;;;;;;;23.42;64.54;100648.13;7403470;19;1413;-52
2023/06/24 01:03:17;;;;;;;;;;;;;;;23.52;63.71;100649.81;7403715;19;1787;-52
2023/06/24 01:05:45;;;;;;;;;;;;;;;23.42;64.12;100645.44;7403968;19;1118;-53
2023/06/24 01:08:15;;;;;;;;;;;;;;;23.34;64.05;100650.81;7403106;19;1609;-52
2023/06/24 01:10:44;;;;;;;;;;;;;;;23.35;64.01;100646.25;7402970;19;1863;-53
2023/06/24 01:13:12;;;;;;;;;;;;;;;23.41;63.79;100651.81;7402124;19;1565;-52
2023/06/24 01:15:40;;;;;;;;;;;;;;;23.47;64.23;100646.78;7401365;19;1847;-52
2023/06/24 01:18:14;;;;;;;;;;;;;;;23.47;63.82;100649.47;7402398;19;1479;-52
2023/06/24 01:20:46;;;;;;;;;;;;;;;23.40;63.52;100658.25;7401403;19;1352;-52
2023/06/24 01:23:23;;;;;;;;;;;;;;;23.52;62.98;100658.75;7402933;19;1947;-52
2023/06/24 01:26:01;;;;;;;;;;;;;;;23.48;62.72;100653.88;7402480;19;1349;-52
2023/06/24 01:28:36;;;;;;;;;;;;;;;23.51;63.01;100661.63;7402370;19;1749;-52
2023/06/24 01:31:20;;;;;;;;;;;;;;;23.49;62.20;100658.25;7402688;19;1749;-52
2023/06/24 01:33:53;;;;;;;;;;;;;;;23.50;62.73;100638.34;7403369;19;1071;-52
2023/06/24 01:36:22;;;;;;;;;;;;;;;23.48;61.80;100645.78;7400937;19;1793;-53
2023/06/24 01:38:54;;;;;;;;;;;;;;;23.36;62.11;100645.25;7401624;19;1511;-52
2023/06/24 01:41:24;;;;;;;;;;;;;;;23.28;62.34;100642.53;7402458;19;1858;-52
2023/06/24 01:43:54;;;;;;;;;;;;;;;23.35;62.07;100640.88;7403592;19;1033;-52
2023/06/24 01:46:24;;;;;;;;;;;;;;;23.30;62.14;100648.59;7402512;19;1008;-52
2023/06/24 01:48:57;;;;;;;;;;;;;;;23.49;61.31;100658.25;7401921;19;1864;-52
2023/06/24 01:51:26;;;;;;;;;;;;;;;23.40;61.86;100657.41;7399972;19;1962;-52
2023/06/24 01:53:56;;;;;;;;;;;;;;;23.41;61.46;100656.38;7399666;19;1769;-53
2023/06/24 01:56:25;;;;;;;;;;;;;;;23.45;63.03;100660.44;7397485;19;1835;-52
2023/06/24 01:58:54;;;;;;;;;;;;;;;23.27;63.60;100644.38;7399622;19;1412;-52
2023/06/24 02:01:23;;;;;;;;;;;;;;;23.16;63.55;100658.22;7399760;19;1720;-52
2023/06/24 02:03:52;;;;;;;;;;;;;;;23.08;63.49;100655.47;7401309;19;1470;-52
2023/06/24 02:06:23;;;;;;;;;;;;;;;22.97;63.38;100662.00;7400840;19;1443;-52
2023/06/24 02:08:53;;;;;;;;;;;;;;;23.15;63.29;100670.84;7401069;19;1670;-52
2023/06/24 02:11:24;;;;;;;;;;;;;;;23.15;63.62;100672.69;7401610;19;1679;-52
2023/06/24 02:13:53;;;;;;;;;;;;;;;23.13;63.35;100663.94;7401572;19;1973;-52
2023/06/24 02:16:23;;;;;;;;;;;;;;;23.06;63.54;100684.47;7398477;19;1857;-52
2023/06/24 02:18:52;;;;;;;;;;;;;;;22.98;63.49;100678.03;7400639;19;1705;-52
2023/06/24 02:21:23;;;;;;;;;;;;;;;23.00;63.36;100680.56;7399347;19;1817;-52
2023/06/24 02:23:52;;;;;;;;;;;;;;;23.33;62.88;100692.28;7399680;19;1400;-52
2023/06/24 02:26:21;;;;;;;;;;;;;;;23.15;63.71;100696.97;7399530;19;1420;-51
2023/06/24 02:28:50;;;;;;;;;;;;;;;23.12;63.54;100700.84;7400746;19;1392;-52
2023/06/24 02:31:18;;;;;;;;;;;;;;;23.17;63.38;100686.88;7400396;19;1408;-52
2023/06/24 02:33:47;;;;;;;;;;;;;;;23.12;62.84;100700.84;7400431;19;1817;-52
2023/06/24 02:36:15;;;;;;;;;;;;;;;23.14;64.83;100704.25;7397892;19;1871;-51
2023/06/24 02:38:46;;;;;;;;;;;;;;;23.26;64.71;100712.88;7400719;19;1739;-52
2023/06/24 02:41:14;;;;;;;;;;;;;;;23.18;64.32;100707.44;7400150;19;1479;-53
2023/06/24 02:43:43;;;;;;;;;;;;;;;23.25;65.06;100718.41;7395236;19;1223;-52
2023/06/24 02:46:12;;;;;;;;;;;;;;;23.24;65.17;100709.50;7398961;19;1565;-52
2023/06/24 02:48:41;;;;;;;;;;;;;;;23.30;65.33;100713.34;7394163;19;1532;-52
2023/06/24 02:51:11;;;;;;;;;;;;;;;23.35;67.39;100716.41;7395062;19;1749;-52
2023/06/24 02:53:39;;;;;;;;;;;;;;;23.41;68.38;100713.88;7394941;19;1376;-52
2023/06/24 02:56:11;;;;;;;;;;;;;;;23.51;68.23;100707.50;7393661;19;1865;-52
2023/06/24 02:58:40;;;;;;;;;;;;;;;23.55;68.66;100712.41;7395686;19;1387;-52
2023/06/24 03:01:09;;;;;;;;;;;;;;;23.54;68.40;100723.38;7394742;19;1749;-52
2023/06/24 03:03:37;;;;;;;;;;;;;;;23.56;68.45;100724.88;7393675;19;1824;-52
2023/06/24 03:06:06;;;;;;;;;;;;;;;23.46;68.74;100717.94;7392316;19;1761;-52
2023/06/24 03:08:35;;;;;;;;;;;;;;;23.45;68.65;100721.66;7395960;19;952;-52
2023/06/24 03:11:03;;;;;;;;;;;;;;;23.41;68.68;100729.25;7395696;19;971;-52
2023/06/24 03:13:34;;;;;;;;;;;;;;;23.44;68.68;100737.03;7395330;19;1486;-53
2023/06/24 03:16:02;;;;;;;;;;;;;;;23.44;69.05;100739.72;7392203;19;1857;-54
2023/06/24 03:18:30;;;;;;;;;;;;;;;23.36;68.86;100743.25;7396497;19;1468;-52
2023/06/24 03:20:59;;;;;;;;;;;;;;;23.40;68.97;100752.69;7397330;19;1800;-51
2023/06/24 03:23:27;;;;;;;;;;;;;;;23.41;68.88;100738.19;7397446;19;1409;-52
2023/06/24 03:25:55;;;;;;;;;;;;;;;23.46;68.35;100748.50;7398966;19;1674;-52
2023/06/24 03:28:23;;;;;;;;;;;;;;;23.44;68.75;100747.81;7398443;19;1395;-52
2023/06/24 03:30:54;;;;;;;;;;;;;;;23.40;68.56;100754.56;7396962;19;1467;-52
2023/06/24 03:33:24;;;;;;;;;;;;;;;23.37;68.71;100744.91;7399081;19;1841;-51
2023/06/24 03:35:52;;;;;;;;;;;;;;;23.42;68.78;100747.97;7398343;19;1852;-52
2023/06/24 03:38:20;;;;;;;;;;;;;;;23.48;68.48;100759.13;7399456;19;1031;-52
2023/06/24 03:40:49;;;;;;;;;;;;;;;23.46;68.59;100743.09;7397557;19;1765;-52
2023/06/24 03:43:17;;;;;;;;;;;;;;;23.47;68.53;100758.25;7397962;19;1935;-52
2023/06/24 03:45:45;;;;;;;;;;;;;;;23.52;68.20;100750.53;7397992;19;1298;-52
2023/06/24 03:48:16;;;;;;;;;;;;;;;23.57;68.04;100758.97;7397538;19;1509;-53
2023/06/24 03:50:44;;;;;;;;;;;;;;;23.55;68.27;100766.38;7397438;19;1478;-52
2023/06/24 03:53:13;;;;;;;;;;;;;;;23.54;68.26;100769.25;7397951;19;1884;-52
2023/06/24 03:55:41;;;;;;;;;;;;;;;23.54;68.39;100774.66;7396096;19;2045;-52
2023/06/24 03:58:10;;;;;;;;;;;;;;;23.50;68.25;100776.84;7397273;19;1433;-52
2023/06/24 04:00:40;;;;;;;;;;;;;;;23.47;68.47;100779.03;7397925;19;1819;-52
2023/06/24 04:03:08;;;;;;;;;;;;;;;23.43;68.49;100773.94;7397771;19;935;-60
2023/06/24 04:05:39;;;;;;;;;;;;;;;23.38;68.26;100770.91;7398121;19;1946;-52
2023/06/24 04:08:07;;;;;;;;;;;;;;;23.39;68.33;100767.19;7397530;19;1876;-52
2023/06/24 04:10:36;;;;;;;;;;;;;;;23.36;68.25;100774.78;7396551;19;1562;-52
2023/06/24 04:13:04;;;;;;;;;;;;;;;23.39;68.33;100774.44;7397382;19;1646;-52
2023/06/24 04:15:32;;;;;;;;;;;;;;;23.34;68.02;100771.41;7396690;19;1864;-51
2023/06/24 04:18:00;;;;;;;;;;;;;;;23.33;68.26;100767.00;7394052;19;1737;-51
2023/06/24 04:20:29;;;;;;;;;;;;;;;23.41;68.03;100772.41;7396880;19;1411;-51
2023/06/24 04:23:00;;;;;;;;;;;;;;;23.44;68.10;100774.81;7396247;19;1463;-52
2023/06/24 04:25:29;;;;;;;;;;;;;;;23.49;68.13;100777.84;7396761;19;1745;-53
2023/06/24 04:27:57;;;;;;;;;;;;;;;23.53;67.86;100762.16;7397618;19;1863;-58
2023/06/24 04:30:25;;;;;;;;;;;;;;;23.52;68.01;100761.31;7397977;19;1099;-52
2023/06/24 04:32:53;;;;;;;;;;;;;;;23.52;67.66;100763.19;7396685;19;1806;-52
2023/06/24 04:35:22;;;;;;;;;;;;;;;23.53;67.72;100756.75;7396098;19;1855;-52
2023/06/24 04:37:50;;;;;;;;;;;;;;;23.54;67.70;100770.09;7396136;19;1562;-51
2023/06/24 04:40:22;;;;;;;;;;;;;;;23.60;67.56;100763.19;7396760;19;1867;-52
2023/06/24 04:42:50;;;;;;;;;;;;;;;23.58;67.54;100759.81;7396238;19;1687;-52
2023/06/24 04:45:19;;;;;;;;;;;;;;;23.56;67.41;100768.09;7395832;19;1360;-52
2023/06/24 04:47:47;;;;;;;;;;;;;;;23.57;67.48;100752.72;7394657;19;1845;-52
2023/06/24 04:50:15;;;;;;;;;;;;;;;23.60;67.35;100764.03;7395989;19;1702;-52
2023/06/24 04:52:44;;;;;;;;;;;;;;;23.12;67.64;100691.91;7396523;19;1746;-55
2023/06/24 04:55:12;;;;;;;;;;;;;;;23.61;67.39;100770.28;7395543;19;1850;-52
2023/06/24 04:57:43;;;;;;;;;;;;;;;23.62;67.58;100771.97;7397228;19;1888;-52
2023/06/24 05:00:12;;;;;;;;;;;;;;;23.10;67.50;100680.44;7396390;19;1930;-52
2023/06/24 05:02:40;;;;;;;;;;;;;;;23.62;67.26;100777.38;7396193;19;1610;-52
2023/06/24 05:05:09;;;;;;;;;;;;;;;23.57;67.43;100769.75;7396203;19;1360;-52
2023/06/24 05:07:39;;;;;;;;;;;;;;;23.58;67.64;100767.91;7396392;19;1766;-52
2023/06/24 05:10:07;;;;;;;;;;;;;;;23.58;67.58;100759.81;7395526;19;1666;-52
2023/06/24 05:12:36;;;;;;;;;;;;;;;23.56;67.45;100759.97;7394866;19;1401;-52
2023/06/24 05:15:07;;;;;;;;;;;;;;;23.62;67.55;100761.19;7394531;19;1820;-51
2023/06/24 05:17:36;;;;;;;;;;;;;;;23.61;67.47;100762.19;7395879;19;1761;-52
2023/06/24 05:20:05;;;;;;;;;;;;;;;23.59;67.39;100767.72;7395727;19;1333;-52
2023/06/24 05:22:33;;;;;;;;;;;;;;;23.60;67.42;100757.81;7395609;19;1403;-52
2023/06/24 05:25:02;;;;;;;;;;;;;;;23.57;67.57;100752.72;7396551;19;1040;-52
2023/06/24 05:27:30;;;;;;;;;;;;;;;23.59;67.45;100756.09;7395749;19;1876;-51
2023/06/24 05:29:58;;;;;;;;;;;;;;;23.60;67.56;100768.59;7400119;19;1507;-52
2023/06/24 05:32:29;;;;;;;;;;;;;;;23.59;67.68;100738.03;7401822;19;1809;-52
2023/06/24 05:34:57;;;;;;;;;;;;;;;23.63;67.37;100738.56;7402537;19;1412;-52
2023/06/24 05:37:26;;;;;;;;;;;;;;;23.66;67.36;100749.03;7399802;19;1991;-53
2023/06/24 05:39:55;;;;;;;;;;;;;;;23.66;67.51;100743.63;7401875;19;1361;-52
2023/06/24 05:42:25;;;;;;;;;;;;;;;23.65;67.12;100750.03;7401368;19;1756;-52
2023/06/24 05:44:53;;;;;;;;;;;;;;;23.66;67.13;100751.72;7401377;19;1742;-52
2023/06/24 05:47:22;;;;;;;;;;;;;;;23.68;67.26;100754.28;7402597;19;1384;-52
2023/06/24 05:49:53;;;;;;;;;;;;;;;23.68;67.07;100749.72;7403306;19;1029;-52
2023/06/24 05:52:21;;;;;;;;;;;;;;;23.69;67.34;100751.38;7401857;19;1515;-52
2023/06/24 05:54:49;;;;;;;;;;;;;;;23.73;67.16;100760.00;7400693;19;1847;-52
2023/06/24 05:57:17;;;;;;;;;;;;;;;23.71;67.18;100760.16;7399155;19;1888;-52
2023/06/24 05:59:46;;;;;;;;;;;;;;;23.70;67.38;100750.38;7402021;19;1706;-52
2023/06/24 06:02:14;;;;;;;;;;;;;;;23.72;67.29;100753.75;7400982;19;1396;-52
2023/06/24 06:04:42;;;;;;;;;;;;;;;23.73;67.04;100766.25;7400830;19;1789;-52
2023/06/24 06:07:13;;;;;;;;;;;;;;;23.72;67.15;100761.88;7400858;19;1478;-52
2023/06/24 06:09:41;;;;;;;;;;;;;;;23.74;67.39;100759.84;7400770;19;1734;-52
2023/06/24 06:12:10;;;;;;;;;;;;;;;23.76;67.29;100774.03;7400483;19;1835;-52
2023/06/24 06:14:39;;;;;;;;;;;;;;;23.71;67.15;100754.75;7401637;19;1749;-52
2023/06/24 06:17:07;;;;;;;;;;;;;;;23.75;67.18;100766.91;7400213;19;1856;-52
2023/06/24 06:19:36;;;;;;;;;;;;;;;23.75;67.25;100766.91;7402191;19;1020;-52
2023/06/24 06:22:04;;;;;;;;;;;;;;;23.76;67.33;100763.22;7400872;19;1554;-52
2023/06/24 06:24:35;;;;;;;;;;;;;;;23.74;67.41;100765.25;7400129;19;1519;-52
2023/06/24 06:27:03;;;;;;;;;;;;;;;23.74;67.32;100764.41;7400805;19;1982;-52
2023/06/24 06:29:32;;;;;;;;;;;;;;;23.72;67.16;100764.56;7401281;19;1827;-52
2023/06/24 06:32:00;;;;;;;;;;;;;;;23.73;67.15;100768.94;7400773;19;1809;-52
2023/06/24 06:34:28;;;;;;;;;;;;;;;23.74;67.14;100769.81;7399124;19;1474;-52
2023/06/24 06:36:56;;;;;;;;;;;;;;;23.79;67.32;100786.38;7397504;19;1842;-52
2023/06/24 06:39:25;;;;;;;;;;;;;;;23.75;67.33;100772.31;7398930;19;1387;-52
2023/06/24 06:41:55;;;;;;;;;;;;;;;23.73;67.38;100782.44;7399518;19;1706;-52
2023/06/24 06:44:24;;;;;;;;;;;;;;;23.75;67.29;100769.63;7399978;19;1729;-52
2023/06/24 06:46:52;;;;;;;;;;;;;;;23.76;67.34;100782.13;7401315;19;1122;-51
2023/06/24 06:49:20;;;;;;;;;;;;;;;23.80;67.24;100770.00;7400187;19;1967;-52
2023/06/24 06:51:49;;;;;;;;;;;;;;;23.88;67.15;100773.72;7399988;19;1377;-53
2023/06/24 06:54:17;;;;;;;;;;;;;;;23.86;67.05;100767.66;7398329;19;1749;-52
2023/06/24 06:56:45;;;;;;;;;;;;;;;23.89;66.79;100773.53;7398835;19;1967;-52
2023/06/24 06:59:17;;;;;;;;;;;;;;;23.94;66.75;100770.34;7398538;19;1717;-53
2023/06/24 07:01:46;;;;;;;;;;;;;;;23.94;66.75;100770.34;7398626;19;1310;-52
2023/06/24 07:04:14;;;;;;;;;;;;;;;23.96;66.67;100773.75;7398093;19;1684;-52
2023/06/24 07:06:42;;;;;;;;;;;;;;;23.94;66.54;100771.19;7400154;19;1466;-52
2023/06/24 07:09:10;;;;;;;;;;;;;;;23.95;66.76;100767.47;7400025;19;1788;-52
2023/06/24 07:11:42;;;;;;;;;;;;;;;23.95;66.88;100772.03;7397422;19;1344;-52
2023/06/24 07:14:10;;;;;;;;;;;;;;;23.93;66.75;100765.97;7400272;19;1240;-52
2023/06/24 07:16:41;;;;;;;;;;;;;;;23.95;66.62;100766.63;7399113;19;1907;-52
2023/06/24 07:19:09;;;;;;;;;;;;;;;24.02;66.68;100762.25;7398582;19;1467;-52
2023/06/24 07:21:38;;;;;;;;;;;;;;;24.04;66.60;100754.81;7399551;19;1836;-52
2023/06/24 07:24:06;;;;;;;;;;;;;;;23.99;66.45;100762.56;7398286;19;1360;-52
2023/06/24 07:26:34;;;;;;;;;;;;;;;23.94;66.71;100751.44;7398117;19;1479;-52
2023/06/24 07:29:03;;;;;;;;;;;;;;;23.91;66.74;100760.72;7398889;19;1741;-52
2023/06/24 07:31:31;;;;;;;;;;;;;;;23.90;67.27;100748.25;7398577;19;1286;-52
2023/06/24 07:34:02;;;;;;;;;;;;;;;23.87;67.03;100751.25;7398574;19;1411;-52
2023/06/24 07:36:30;;;;;;;;;;;;;;;23.89;66.93;100746.53;7398583;19;1998;-51
2023/06/24 07:38:58;;;;;;;;;;;;;;;23.93;67.00;100747.03;7398983;19;1546;-52
2023/06/24 07:41:27;;;;;;;;;;;;;;;23.93;66.73;100741.66;7397699;19;1503;-52
2023/06/24 07:43:55;;;;;;;;;;;;;;;23.93;66.85;100741.66;7395056;19;983;-52
2023/06/24 07:46:23;;;;;;;;;;;;;;;23.98;66.92;100753.63;7399397;19;1044;-52
2023/06/24 07:48:52;;;;;;;;;;;;;;;24.02;66.62;100746.88;7396636;19;1625;-52
2023/06/24 07:51:22;;;;;;;;;;;;;;;24.02;66.76;100735.25;7397714;19;1712;-52
2023/06/24 07:53:51;;;;;;;;;;;;;;;24.01;66.61;100723.59;7393638;19;1357;-52
2023/06/24 07:56:19;;;;;;;;;;;;;;;24.06;66.57;100722.25;7395235;19;1853;-52
2023/06/24 07:58:47;;;;;;;;;;;;;;;24.08;66.69;100722.91;7396278;19;1534;-52
2023/06/24 08:01:16;;;;;;;;;;;;;;;24.13;66.65;100728.63;7397927;19;1792;-52
2023/06/24 08:03:44;;;;;;;;;;;;;;;24.10;66.50;100724.44;7397310;19;1490;-52
2023/06/24 08:06:13;;;;;;;;;;;;;;;24.11;66.41;100723.41;7399360;19;973;-52
2023/06/24 08:08:45;;;;;;;;;;;;;;;24.12;66.35;100725.09;7397258;19;1447;-52
2023/06/24 08:11:14;;;;;;;;;;;;;;;24.12;66.61;100717.00;7398114;19;1472;-52
2023/06/24 08:13:42;;;;;;;;;;;;;;;24.14;66.31;100727.63;7399169;19;958;-52
2023/06/24 08:16:11;;;;;;;;;;;;;;;24.13;66.25;100724.09;7396964;19;1841;-52
2023/06/24 08:18:39;;;;;;;;;;;;;;;24.11;66.43;100722.56;7397895;19;1986;-52
2023/06/24 08:21:07;;;;;;;;;;;;;;;24.10;66.61;100724.44;7397391;19;1417;-52
2023/06/24 08:23:35;;;;;;;;;;;;;;;24.13;66.18;100725.94;7396369;19;1455;-52
2023/06/24 08:26:07;;;;;;;;;;;;;;;24.14;66.44;100728.47;7395725;19;1750;-52
2023/06/24 08:28:35;;;;;;;;;;;;;;;24.09;66.54;100722.72;7397962;19;996;-52
2023/06/24 08:31:03;;;;;;;;;;;;;;;24.13;66.47;100720.53;7398111;19;1805;-51
2023/06/24 08:33:32;;;;;;;;;;;;;;;24.12;66.42;100726.97;7397342;19;1608;-52
2023/06/24 08:36:00;;;;;;;;;;;;;;;24.13;66.31;100726.81;7396541;19;1939;-52
2023/06/24 08:38:28;;;;;;;;;;;;;;;24.11;66.36;100734.19;7395572;19;1844;-51
2023/06/24 08:40:57;;;;;;;;;;;;;;;24.11;66.54;100715.28;7396428;19;1348;-52
2023/06/24 08:43:28;;;;;;;;;;;;;;;24.14;66.47;100720.38;7397523;19;993;-52
2023/06/24 08:45:57;;;;;;;;;;;;;;;24.15;66.39;100730.19;7396429;19;1582;-52
2023/06/24 08:48:25;;;;;;;;;;;;;;;24.12;66.47;100719.69;7397351;19;1628;-52
2023/06/24 08:50:55;;;;;;;;;;;;;;;24.11;66.34;100715.28;7395152;19;1705;-52
2023/06/24 08:53:23;;;;;;;;;;;;;;;24.14;66.41;100714.97;7397771;19;969;-52
2023/06/24 08:55:53;;;;;;;;;;;;;;;24.14;66.39;100712.25;7393590;19;1522;-52
2023/06/24 08:58:22;;;;;;;;;;;;;;;24.11;66.40;100693.69;7394870;19;1936;-52
2023/06/24 09:00:53;;;;;;;;;;;;;;;24.13;66.60;100701.63;7395932;19;1380;-52
2023/06/24 09:03:21;;;;;;;;;;;;;;;24.11;66.60;100701.78;7395280;19;1356;-52
2023/06/24 09:05:49;;;;;;;;;;;;;;;24.12;66.38;100692.69;7402112;19;1342;-52
2023/06/24 09:08:18;;;;;;;;;;;;;;;24.14;66.24;100698.75;7402455;19;1728;-52
2023/06/24 09:10:46;;;;;;;;;;;;;;;24.09;66.37;100690.31;7403932;19;1407;-52
2023/06/24 09:13:15;;;;;;;;;;;;;;;24.09;66.64;100709.22;7404574;19;1114;-52
2023/06/24 09:15:43;;;;;;;;;;;;;;;24.08;66.70;100712.13;7401408;19;1713;-54
2023/06/24 09:18:16;;;;;;;;;;;;;;;24.12;66.53;100700.78;7400446;19;1833;-52
2023/06/24 09:20:49;;;;;;;;;;;;;;;24.12;66.59;100703.50;7401708;19;1379;-52
2023/06/24 09:23:19;;;;;;;;;;;;;;;24.12;66.29;100692.69;7403542;19;1717;-52
2023/06/24 09:25:57;;;;;;;;;;;;;;;24.16;66.53;100693.19;7402842;19;1470;-52
2023/06/24 09:28:28;;;;;;;;;;;;;;;24.16;66.31;100704.00;7403097;19;1360;-52
2023/06/24 09:31:06;;;;;;;;;;;;;;;24.17;66.19;100694.84;7402614;19;1960;-52
2023/06/24 09:33:38;;;;;;;;;;;;;;;24.19;66.47;100693.69;7403270;19;1043;-52
2023/06/24 09:36:07;;;;;;;;;;;;;;;24.13;66.38;100694.38;7402502;19;1769;-52
2023/06/24 09:38:36;;;;;;;;;;;;;;;24.13;66.44;100680.88;7400652;19;1858;-52
2023/06/24 09:41:07;;;;;;;;;;;;;;;24.14;66.40;100689.81;7402421;19;1824;-51
2023/06/24 09:43:39;;;;;;;;;;;;;;;24.15;66.32;100691.47;7402879;19;983;-52
2023/06/24 09:46:08;;;;;;;;;;;;;;;24.13;66.44;100702.50;7402133;19;1792;-52
2023/06/24 09:48:39;;;;;;;;;;;;;;;24.14;66.27;100698.75;7401099;19;1793;-51
2023/06/24 09:51:07;;;;;;;;;;;;;;;24.12;66.41;100691.84;7402016;19;1651;-52
2023/06/24 09:53:36;;;;;;;;;;;;;;;24.10;66.40;100697.41;7400147;19;1756;-52
2023/06/24 09:56:06;;;;;;;;;;;;;;;24.09;66.44;100689.47;7400138;19;1690;-52
2023/06/24 09:58:35;;;;;;;;;;;;;;;24.10;66.36;100702.81;7399980;19;1847;-51
2023/06/24 10:01:05;;;;;;;;;;;;;;;24.08;66.45;100691.34;7401516;19;1722;-51
2023/06/24 10:03:35;;;;;;;;;;;;;;;24.01;66.58;100682.22;7402492;19;1844;-52
2023/06/24 10:06:07;;;;;;;;;;;;;;;24.05;66.66;100697.06;7401437;19;1732;-52
2023/06/24 10:08:36;;;;;;;;;;;;;;;24.00;66.50;100673.28;7402608;19;1111;-52
2023/06/24 10:11:04;;;;;;;;;;;;;;;24.02;66.77;100687.44;7399793;19;1939;-52
2023/06/24 10:13:32;;;;;;;;;;;;;;;24.04;66.74;100689.16;7401299;19;1456;-51
2023/06/24 10:16:01;;;;;;;;;;;;;;;23.99;66.98;100677.00;7397778;19;1605;-51
2023/06/24 10:18:36;;;;;;;;;;;;;;;24.01;66.90;100685.78;7399476;19;1857;-52
2023/06/24 10:21:08;;;;;;;;;;;;;;;24.02;66.75;100670.41;7401089;19;1624;-52
2023/06/24 10:23:41;;;;;;;;;;;;;;;24.08;66.54;100677.00;7400184;19;1389;-52
2023/06/24 10:26:13;;;;;;;;;;;;;;;24.04;66.68;100662.97;7400255;19;1759;-52
2023/06/24 10:28:57;;;;;;;;;;;;;;;24.11;66.41;100679.34;7399457;19;1510;-52
2023/06/24 10:31:50;;;;;;;;;;;;;;;24.09;66.55;100670.56;7399861;19;1708;-54
2023/06/24 10:34:22;;;;;;;;;;;;;;;24.10;66.58;100669.56;7399670;19;1760;-52
2023/06/24 10:36:58;;;;;;;;;;;;;;;24.10;66.57;100667.69;7399700;19;1817;-52
2023/06/24 10:39:41;;;;;;;;;;;;;;;24.11;66.45;100663.97;7399479;19;1320;-52
2023/06/24 10:42:25;;;;;;;;;;;;;;;24.08;66.73;100663.50;7399750;19;1677;-52
2023/06/24 10:44:54;;;;;;;;;;;;;;;24.09;66.70;100676.78;7399800;19;1774;-52
2023/06/24 10:47:22;;;;;;;;;;;;;;;24.07;66.52;100657.22;7400479;19;1309;-51
2023/06/24 10:49:51;;;;;;;;;;;;;;;24.06;66.35;100666.34;7401066;19;982;-51
2023/06/24 10:52:23;;;;;;;;;;;;;;;24.03;66.48;100661.28;7400796;19;1045;-52
2023/06/24 10:54:52;;;;;;;;;;;;;;;24.03;66.73;100661.28;7399510;19;1935;-52
2023/06/24 10:57:24;;;;;;;;;;;;;;;24.00;66.84;100651.66;7398921;19;1818;-52
2023/06/24 10:59:53;;;;;;;;;;;;;;;23.99;66.64;100673.44;7399914;19;1464;-51
2023/06/24 11:02:22;;;;;;;;;;;;;;;24.00;66.75;100648.97;7400319;19;1467;-52
2023/06/24 11:04:51;;;;;;;;;;;;;;;23.99;66.58;100650.00;7399346;19;1391;-52
2023/06/24 11:07:20;;;;;;;;;;;;;;;24.00;66.98;100656.22;7398762;19;1807;-52
2023/06/24 11:09:54;;;;;;;;;;;;;;;23.98;66.58;100645.59;7398803;19;1682;-52
2023/06/24 11:12:25;;;;;;;;;;;;;;;24.01;66.70;100647.09;7398494;19;1778;-52
2023/06/24 11:14:54;;;;;;;;;;;;;;;23.98;66.91;100658.25;7398356;19;1760;-52
2023/06/24 11:17:23;;;;;;;;;;;;;;;23.99;66.66;100643.72;7398680;19;1838;-52
2023/06/24 11:19:51;;;;;;;;;;;;;;;23.96;66.81;100646.78;7401289;19;1032;-51
2023/06/24 11:22:19;;;;;;;;;;;;;;;23.97;66.87;100645.75;7400492;19;940;-52
2023/06/24 11:24:47;;;;;;;;;;;;;;;23.94;66.82;100652.34;7399009;19;1558;-52
2023/06/24 11:27:18;;;;;;;;;;;;;;;23.93;66.93;100645.25;7398099;19;1514;-52
2023/06/24 11:29:47;;;;;;;;;;;;;;;23.95;67.09;100640.53;7398296;19;1920;-52
2023/06/24 11:32:15;;;;;;;;;;;;;;;23.96;66.70;100638.69;7398895;19;1654;-52
2023/06/24 11:34:43;;;;;;;;;;;;;;;23.99;66.93;100638.31;7399035;19;1353;-51
2023/06/24 11:37:12;;;;;;;;;;;;;;;24.02;66.88;100630.72;7396671;19;1682;-52
2023/06/24 11:39:41;;;;;;;;;;;;;;;24.02;66.54;100633.44;7398956;19;1338;-52
2023/06/24 11:42:10;;;;;;;;;;;;;;;24.04;66.66;100633.25;7400013;19;1008;-52
2023/06/24 11:44:43;;;;;;;;;;;;;;;24.05;66.68;100631.41;7395976;19;1844;-52
2023/06/24 11:47:12;;;;;;;;;;;;;;;24.06;66.68;100625.84;7399047;19;942;-52
2023/06/24 11:49:53;;;;;;;;;;;;;;;24.06;66.66;100617.72;7397109;19;1856;-51
2023/06/24 11:52:22;;;;;;;;;;;;;;;24.08;66.91;100621.09;7398949;19;1832;-52
2023/06/24 11:54:52;;;;;;;;;;;;;;;24.07;66.53;100614.00;7396476;19;1491;-52
2023/06/24 11:57:20;;;;;;;;;;;;;;;24.02;66.69;100622.63;7397679;19;1849;-51
2023/06/24 11:59:54;;;;;;;;;;;;;;;23.99;67.02;100622.13;7398488;19;1688;-52
2023/06/24 12:02:22;;;;;;;;;;;;;;;23.98;67.08;100593.44;7397941;19;1763;-52
2023/06/24 12:04:50;;;;;;;;;;;;;;;23.98;67.02;100605.06;7397686;19;1309;-51
2023/06/24 12:07:18;;;;;;;;;;;;;;;23.98;67.09;100601.53;7397883;19;1399;-52
2023/06/24 12:09:47;;;;;;;;;;;;;;;24.01;66.65;100593.06;7398370;19;1336;-52
2023/06/24 12:12:15;;;;;;;;;;;;;;;24.01;66.85;100593.94;7399473;19;1001;-52
2023/06/24 12:14:43;;;;;;;;;;;;;;;24.06;66.92;100589.88;7394903;19;1936;-52
2023/06/24 12:17:16;;;;;;;;;;;;;;;24.01;66.78;100576.88;7398080;19;1686;-52
2023/06/24 12:19:45;;;;;;;;;;;;;;;24.03;66.75;100572.13;7396453;19;1852;-52
2023/06/24 12:22:13;;;;;;;;;;;;;;;24.05;66.79;100588.19;7398421;19;1816;-51
2023/06/24 12:24:41;;;;;;;;;;;;;;;24.05;66.72;100569.28;7397603;19;1954;-52
2023/06/24 12:27:10;;;;;;;;;;;;;;;23.98;66.96;100567.25;7397420;19;1467;-52
2023/06/24 12:29:38;;;;;;;;;;;;;;;23.98;67.27;100574.53;7397714;19;1401;-52
2023/06/24 12:32:07;;;;;;;;;;;;;;;23.96;67.37;100565.75;7396979;19;1761;-52
2023/06/24 12:34:38;;;;;;;;;;;;;;;23.94;67.28;100571.31;7396481;19;1291;-52
2023/06/24 12:37:06;;;;;;;;;;;;;;;23.94;67.07;100557.81;7396514;19;1286;-52
2023/06/24 12:39:35;;;;;;;;;;;;;;;23.97;66.86;100564.72;7397711;19;1865;-52
2023/06/24 12:42:03;;;;;;;;;;;;;;;23.99;67.14;100562.69;7403068;19;1815;-52
2023/06/24 12:44:31;;;;;;;;;;;;;;;24.01;67.11;100566.06;7405101;19;1796;-52
2023/06/24 12:46:59;;;;;;;;;;;;;;;24.01;66.77;100547.16;7404673;19;1027;-52
2023/06/24 12:49:28;;;;;;;;;;;;;;;24.05;66.96;100545.78;7404290;19;1840;-52
2023/06/24 12:51:59;;;;;;;;;;;;;;;24.07;66.79;100551.03;7403660;19;1919;-52
2023/06/24 12:54:27;;;;;;;;;;;;;;;24.10;66.91;100543.41;7403083;19;1812;-52
2023/06/24 12:56:57;;;;;;;;;;;;;;;24.11;66.63;100549.66;7403956;19;1675;-52
2023/06/24 12:59:25;;;;;;;;;;;;;;;24.07;66.58;100542.91;7400552;19;1853;-52